Terminal Aerodrome Forecast
Issued by NWS Mt. Holly, NJ

Home | Current Version | Previous Version | Text Only | Print | Product List | Glossary On
Versions: 1 2 3 4 5 6 7 8 9 10 11 12 13 14 15 16 17 18 19 20 21 22 23 24 25 26 27 28 29 30 31 32 33 34 35 36 37 38
000
FTUS41 KPHI 162338
TAFABE
TAF
KABE 162338Z 1700/1724 VRB03KT 6SM HZ SCT015 OVC050
      TEMPO 1700/1702 3SM -SN
     FM170200 VRB03KT 2SM -SN OVC007
     FM170800 31004KT 2SM -SN OVC007
     FM171200 31006KT P6SM OVC015
     FM171600 32010KT P6SM BKN050=

USA.gov is the U.S. government's official web portal to all federal, state and local government web resources and services.